Deerfield Beach, FL (33441)

02:36 PM EDT die 01o September, anno 2014 (GMT -0400)
Deerfield Beach | Change Station
CLOSE
Current Station
Personal Weather Stations
Location: Deerfield Beach, FL
Elevation: 30 ft
Nearby Weather Stations

Elev 30 ft 26.32 °N, 80.12 °W | Updated 13 minutes ago

Clear
Serena
97.3 °F
Feels Like 114 °F
N
5.0
Ventus Variabilis Ventus from Magis Eurus quam Auster
Gusts 15.0 mph

Hodie
High -- | Low -- °F
--% Chance of Precip.
Yesterday
High -- | Low -- °F
Precip. -- in
7:00 AM 7:40 PM
Waxing Crescent, 43% visible
Pressio 30.09 in
Visibilitas 10.0 milia passuum
Clouds Serena
Index Caloris 114 °F
Frigus in quo Ros apparet 78 °F
Umor 54%
Rainfall 0.00 in
Snow Depth Not available.
UV 14 out of 12
Pollen 5.20 out of 12
Air Quality Not available.
Flu Activity Not available.
METAR KPMP 011753Z 11013KT 10SM CLR 33/23 A3008 RMK AO2 SLP188 T03280228

More Conditions Fewer Conditions

Pressio 30.09 in
Visibilitas 10.0 milia passuum
Clouds Serena
Index Caloris 114 °F
Frigus in quo Ros apparet 78 °F
Umor 54%
Rainfall 0.00 in
Snow Depth Not available.
UV 14 out of 12
Pollen 5.20 out of 12
Air Quality Not available.
Flu Activity Not available.
METAR KPMP 011753Z 11013KT 10SM CLR 33/23 A3008 RMK AO2 SLP188 T03280228

More Conditions Fewer Conditions

Nowcast | as of 12:47 PM EDT on September 1, 2014

Scattered showers will move west at around 10 mph across South Florida and the adjacent waters. A few thunderstorms will also be possible later this afternoon over the interior peninsula and along the southwest coast. The strongest storms will be capable of producing frequent lightning strikes along with strong and gusty winds to 50 mph.

×

10-Day Weather Forecast

Almanac

Astronomy

Sep. 01, 2014 Rise Set
Actual Time 7:00 AM EDT 7:40 PM EDT
Civil Twilight 6:36 AM EDT 8:03 PM EDT
Nautical Twilight 6:09 AM EDT 8:31 PM EDT
Astronomical Twilight 5:41 AM EDT 8:59 PM EDT
Moon 1:06 PM EDT Nulla Occasus Lunae
Length Of Visible Light 13h 26m
Length of Day
12h 39m
Tomorrow will be 1m 29s shorter.
Waxing Crescent, 43% of the Moon is Illuminated
Hodie
Waxing Crescent
Sep 2
First Quarter
Sep 8
Full
Sep 15
Last Quarter
Sep 24
New

Today's Extremes

State Highs State Lows

Community

WunderPhotos

Upload Photos

1,749,350 photos uploaded!

Nearby

Air Quality

  Air Quality AQ Index Pollutant
Die Lunae Good
OZONE
Die Lunae Good
PM2.5
Die Martis Good
OZONE
Die Martis Good
PM2.5

Snow Depth

Station Depth Elevation
No new snow has been reported.

Earthquake Activity

City Distance Mag. Time & Date
No recent earthquake activity has been reported nearby.
Minimum magnitude displayed is 2.5.

Coastal Water Temperatures

Locus Calor
Virginia Key, FL 88.0 °F

Nearby Weather Stations